Terminal Aerodrome Forecast
Issued by NWS

Home | Current Version | Previous Version | Text Only | Print | Product List | Glossary On
Versions: 1 2 3 4 5 6 7 8 9 10 11 12 13 14 15 16 17 18 19 20 21 22 23 24 25 26 27
857
FTUS46 KLOX 241744
TAFLGB
TAF
KLGB 241744Z 2418/2518 VRB03KT P6SM SKC
     FM241930 20006KT P6SM SKC
     FM242100 29012KT P6SM SCT200
     FM250400 VRB03KT P6SM SCT200
     FM251000 VRB03KT P6SM VCSH BKN070
     FM251400 VRB03KT P6SM VCSH BKN025 OVC050=

USA.gov is the U.S. government's official web portal to all federal, state and local government web resources and services.